Terminal Aerodrome Forecast
Issued by NWS

Home | Current Version | Previous Version | Text Only | Print | Product List | Glossary On
Versions: 1 2 3 4 5 6 7 8 9 10 11 12 13 14 15 16 17 18 19
000
FTUS41 KALY 230552
TAFPSF
TAF
KPSF 230552Z 2306/2406 VRB03KT P6SM BKN100 BKN250
     FM231100 19005KT P6SM SCT050 BKN080
     FM231400 20010G18KT P6SM SCT025 OVC050
      TEMPO 2314/2318 4SM -TSRA BR OVC025CB
     FM232200 21012G20KT P6SM BKN025 OVC050 PROB30 2322/2404 4SM
      -TSRA BR OVC025CB
     FM240400 24010G18KT 4SM BR VCSH BKN025 OVC050=

USA.gov is the U.S. government's official web portal to all federal, state and local government web resources and services.